Terminal Aerodrome Forecast
Issued by NWS

Home | Current Version | Previous Version | Text Only | Print | Product List | Glossary Off
Versions: 1 2 3 4 5 6 7 8 9 10 11 12 13 14 15 16 17

000
FTUS43 KABR 222334
TAFPIR
TAF
KPIR 222334Z 2300/2324 22010KT P6SM SKC
     FM230600 29012KT P6SM BKN200 WS020/31040KT
     FM230800 29015G24KT P6SM BKN250 WS020/30045KT
     FM231400 30023G32KT P6SM FEW200
     FM231700 31028G40KT P6SM FEW200=

USA.gov is the U.S. government's official web portal to all federal, state and local government web resources and services.